Holmes Beach, FL

7:24 PM EDT on September 19, 2014 (GMT -0400)
Whitted | Change Station
CLOSE
Current Station
Airport
Location: St. Petersburg,
Elevation: 7 ft
Nearby Weather Stations

Elev 7 ft 27.77 °N, 82.63 °W | Updated 31 minutes ago

Rain
Rain
73 °F
Feels Like 73 °F
N
10
Wind Variable Wind from East

Today
High -- | Low -- °F
--% Chance of Precip.
Yesterday
High -- | Low -- °F
Precip. -- in
7:18 AM 7:30 PM
Waning Crescent, 16% visible
Pressure 29.94 in
Visibility 1.8 miles
Clouds Mostly Cloudy 4700 ft
Overcast 6000 ft
Dew Point 70 °F
Humidity 90%
Rainfall 1.07 in
Snow Depth Not available.
UV 0 out of 12
Pollen 2.00 out of 12
Air Quality Not available.
Flu Activity Not available.
METAR KSPG 192253Z 10009KT 1 3/4SM +RA BR BKN047 OVC060 23/21 A2993 RMK AO2 SLP136 P0059 T02280211

More Conditions Fewer Conditions

Pressure 29.94 in
Visibility 1.8 miles
Clouds Mostly Cloudy 4700 ft
Overcast 6000 ft
Dew Point 70 °F
Humidity 90%
Rainfall 1.07 in
Snow Depth Not available.
UV 0 out of 12
Pollen 2.00 out of 12
Air Quality Not available.
Flu Activity Not available.
METAR KSPG 192253Z 10009KT 1 3/4SM +RA BR BKN047 OVC060 23/21 A2993 RMK AO2 SLP136 P0059 T02280211

More Conditions Fewer Conditions

10-Day Weather Forecast

Almanac

Astronomy

Sep. 19, 2014 Rise Set
Actual Time 7:18 AM EDT 7:30 PM EDT
Civil Twilight 6:54 AM EDT 7:54 PM EDT
Nautical Twilight 6:27 AM EDT 8:21 PM EDT
Astronomical Twilight 5:59 AM EDT 8:48 PM EDT
Moon 3:19 AM EDT 4:43 PM EDT
Length of Visible Light 12h 59m
Length of Day
12h 12m
Tomorrow will be 1m 37s shorter.
Waning Crescent, 16% of the Moon is Illuminated
Today
Waning Crescent
Sep 24
New
Oct 1
First Quarter
Oct 8
Full
Oct 15
Last Quarter

Today's Extremes

State Highs State Lows

Community

WunderPhotos

Upload Photos

1,754,724 photos uploaded!

Nearby

Snow Depth

Station Depth Elevation
No new snow has been reported.

Earthquake Activity

City Distance Mag. Time & Date
No recent earthquake activity has been reported nearby.
Minimum magnitude displayed is 2.5.

Coastal Water Temperatures

Place Temperature
St Petersburg, FL 86.0 °F
Old Port Tampa, FL 84.0 °F

Nearby Weather Stations